Anna, Texas
Current Conditions -  °F | °C
As of 7:00 AM on Sunday 23 Nov 2014 (Local Time) from KTKI Reporting Station
Haze Haze  
Wind Chill: 57°   Ceiling: 200
Heat Index: 57°   Visibility: 3mi
Dew Point: 57°   Wind: 7mph
Humidity: 100%   Direction: 200°SSW
Pressure: 29.59"   Gusts: NA
Location:  33.35°N, 96.55°W
Report Text: KTKI 231300Z 20006KT 3SM BR OVC002 14/14 A2959 RMK AO2 T01390139
Loading
Personal Weather Stations






























Interactive Weather Map New forecast layout! Learn more

10-Day Weather Forecast

Advertisements
Track Severe Weather on mobile